sensor_id;sensor_type;location;lat;lon;timestamp;P1;durP1;ratioP1;P2;durP2;ratioP2
46717;SDS011;32448;44.960;-0.698;2024-01-30T00:01:47;11.70;;;4.80;;
46717;SDS011;32448;44.960;-0.698;2024-01-30T00:04:14;14.77;;;5.45;;
46717;SDS011;32448;44.960;-0.698;2024-01-30T00:06:46;14.13;;;5.45;;
46717;SDS011;32448;44.960;-0.698;2024-01-30T00:09:13;20.40;;;5.30;;
46717;SDS011;32448;44.960;-0.698;2024-01-30T00:11:40;8.88;;;4.97;;
46717;SDS011;32448;44.960;-0.698;2024-01-30T00:14:07;10.98;;;4.60;;
46717;SDS011;32448;44.960;-0.698;2024-01-30T00:16:33;7.78;;;4.68;;
46717;SDS011;32448;44.960;-0.698;2024-01-30T00:19:00;17.02;;;4.97;;
46717;SDS011;32448;44.960;-0.698;2024-01-30T00:21:28;9.75;;;5.40;;
46717;SDS011;32448;44.960;-0.698;2024-01-30T00:23:55;10.48;;;4.95;;
46717;SDS011;32448;44.960;-0.698;2024-01-30T00:26:22;14.90;;;6.10;;
46717;SDS011;32448;44.960;-0.698;2024-01-30T00:28:49;10.43;;;5.22;;
46717;SDS011;32448;44.960;-0.698;2024-01-30T00:31:16;15.65;;;5.68;;
46717;SDS011;32448;44.960;-0.698;2024-01-30T00:33:43;17.92;;;5.57;;
46717;SDS011;32448;44.960;-0.698;2024-01-30T00:36:10;10.98;;;4.70;;
46717;SDS011;32448;44.960;-0.698;2024-01-30T00:38:37;10.93;;;4.43;;
46717;SDS011;32448;44.960;-0.698;2024-01-30T00:41:04;15.75;;;5.13;;
46717;SDS011;32448;44.960;-0.698;2024-01-30T00:43:31;10.50;;;4.70;;
46717;SDS011;32448;44.960;-0.698;2024-01-30T00:45:58;7.93;;;4.30;;
46717;SDS011;32448;44.960;-0.698;2024-01-30T00:48:25;18.10;;;4.88;;
46717;SDS011;32448;44.960;-0.698;2024-01-30T00:50:52;10.35;;;5.03;;
46717;SDS011;32448;44.960;-0.698;2024-01-30T00:53:19;10.98;;;4.85;;
46717;SDS011;32448;44.960;-0.698;2024-01-30T00:55:46;12.07;;;4.95;;
46717;SDS011;32448;44.960;-0.698;2024-01-30T00:58:13;9.35;;;4.80;;
46717;SDS011;32448;44.960;-0.698;2024-01-30T01:00:39;12.18;;;4.90;;
46717;SDS011;32448;44.960;-0.698;2024-01-30T01:03:06;12.68;;;4.78;;
46717;SDS011;32448;44.960;-0.698;2024-01-30T01:05:33;11.52;;;4.80;;
46717;SDS011;32448;44.960;-0.698;2024-01-30T01:08:00;10.43;;;4.28;;
46717;SDS011;32448;44.960;-0.698;2024-01-30T01:10:27;11.77;;;4.80;;
46717;SDS011;32448;44.960;-0.698;2024-01-30T01:12:55;11.65;;;5.00;;
46717;SDS011;32448;44.960;-0.698;2024-01-30T01:15:22;11.05;;;4.35;;
46717;SDS011;32448;44.960;-0.698;2024-01-30T01:17:50;8.27;;;4.43;;
46717;SDS011;32448;44.960;-0.698;2024-01-30T01:20:16;10.95;;;5.53;;
46717;SDS011;32448;44.960;-0.698;2024-01-30T01:22:43;12.10;;;5.05;;
46717;SDS011;32448;44.960;-0.698;2024-01-30T01:25:10;14.43;;;4.97;;
46717;SDS011;32448;44.960;-0.698;2024-01-30T01:27:37;11.85;;;5.05;;
46717;SDS011;32448;44.960;-0.698;2024-01-30T01:30:08;11.52;;;5.22;;
46717;SDS011;32448;44.960;-0.698;2024-01-30T01:32:36;10.55;;;5.45;;
46717;SDS011;32448;44.960;-0.698;2024-01-30T01:35:04;10.73;;;5.28;;
46717;SDS011;32448;44.960;-0.698;2024-01-30T01:37:34;11.02;;;5.35;;
46717;SDS011;32448;44.960;-0.698;2024-01-30T01:40:01;14.45;;;5.63;;
46717;SDS011;32448;44.960;-0.698;2024-01-30T01:42:28;8.73;;;4.95;;
46717;SDS011;32448;44.960;-0.698;2024-01-30T01:44:55;10.88;;;4.55;;
46717;SDS011;32448;44.960;-0.698;2024-01-30T01:47:22;10.88;;;5.43;;
46717;SDS011;32448;44.960;-0.698;2024-01-30T01:49:49;8.77;;;4.85;;
46717;SDS011;32448;44.960;-0.698;2024-01-30T01:52:16;11.10;;;4.55;;
46717;SDS011;32448;44.960;-0.698;2024-01-30T01:54:43;9.15;;;4.72;;
46717;SDS011;32448;44.960;-0.698;2024-01-30T01:57:10;10.02;;;5.25;;
46717;SDS011;32448;44.960;-0.698;2024-01-30T01:59:37;8.73;;;5.30;;
46717;SDS011;32448;44.960;-0.698;2024-01-30T02:02:05;8.48;;;5.38;;
46717;SDS011;32448;44.960;-0.698;2024-01-30T02:04:37;9.85;;;5.43;;
46717;SDS011;32448;44.960;-0.698;2024-01-30T02:07:04;7.97;;;5.25;;
46717;SDS011;32448;44.960;-0.698;2024-01-30T02:09:31;12.50;;;5.70;;
46717;SDS011;32448;44.960;-0.698;2024-01-30T02:11:58;9.63;;;5.50;;
46717;SDS011;32448;44.960;-0.698;2024-01-30T02:14:25;11.82;;;5.53;;
46717;SDS011;32448;44.960;-0.698;2024-01-30T02:16:55;12.43;;;5.40;;
46717;SDS011;32448;44.960;-0.698;2024-01-30T02:19:23;14.18;;;6.05;;
46717;SDS011;32448;44.960;-0.698;2024-01-30T02:21:50;10.38;;;5.68;;
46717;SDS011;32448;44.960;-0.698;2024-01-30T02:24:17;10.00;;;5.78;;
46717;SDS011;32448;44.960;-0.698;2024-01-30T02:26:43;12.18;;;5.53;;
46717;SDS011;32448;44.960;-0.698;2024-01-30T02:29:10;11.57;;;5.85;;
46717;SDS011;32448;44.960;-0.698;2024-01-30T02:31:37;10.48;;;5.53;;
46717;SDS011;32448;44.960;-0.698;2024-01-30T02:34:04;10.40;;;5.90;;
46717;SDS011;32448;44.960;-0.698;2024-01-30T02:36:30;12.95;;;5.45;;
46717;SDS011;32448;44.960;-0.698;2024-01-30T02:38:57;9.23;;;5.75;;
46717;SDS011;32448;44.960;-0.698;2024-01-30T02:41:24;11.55;;;6.07;;
46717;SDS011;32448;44.960;-0.698;2024-01-30T02:43:51;11.65;;;6.28;;
46717;SDS011;32448;44.960;-0.698;2024-01-30T02:46:18;13.57;;;6.03;;
46717;SDS011;32448;44.960;-0.698;2024-01-30T02:48:45;9.40;;;5.15;;
46717;SDS011;32448;44.960;-0.698;2024-01-30T02:51:11;11.25;;;5.80;;
46717;SDS011;32448;44.960;-0.698;2024-01-30T02:53:38;12.88;;;7.05;;
46717;SDS011;32448;44.960;-0.698;2024-01-30T02:56:05;9.10;;;5.53;;
46717;SDS011;32448;44.960;-0.698;2024-01-30T02:58:36;9.98;;;6.30;;
46717;SDS011;32448;44.960;-0.698;2024-01-30T03:01:03;9.52;;;5.85;;
46717;SDS011;32448;44.960;-0.698;2024-01-30T03:03:30;12.57;;;6.65;;
46717;SDS011;32448;44.960;-0.698;2024-01-30T03:05:57;14.75;;;6.63;;
46717;SDS011;32448;44.960;-0.698;2024-01-30T03:08:23;11.35;;;6.40;;
46717;SDS011;32448;44.960;-0.698;2024-01-30T03:10:50;12.85;;;7.30;;
46717;SDS011;32448;44.960;-0.698;2024-01-30T03:13:17;9.88;;;6.10;;
46717;SDS011;32448;44.960;-0.698;2024-01-30T03:15:44;8.82;;;6.15;;
46717;SDS011;32448;44.960;-0.698;2024-01-30T03:18:11;11.57;;;6.07;;
46717;SDS011;32448;44.960;-0.698;2024-01-30T03:20:38;12.18;;;6.45;;
46717;SDS011;32448;44.960;-0.698;2024-01-30T03:23:05;13.77;;;6.72;;
46717;SDS011;32448;44.960;-0.698;2024-01-30T03:25:34;11.80;;;6.43;;
46717;SDS011;32448;44.960;-0.698;2024-01-30T03:28:01;10.55;;;6.68;;
46717;SDS011;32448;44.960;-0.698;2024-01-30T03:30:28;8.85;;;6.10;;
46717;SDS011;32448;44.960;-0.698;2024-01-30T03:32:55;9.90;;;6.15;;
46717;SDS011;32448;44.960;-0.698;2024-01-30T03:35:21;10.35;;;6.75;;
46717;SDS011;32448;44.960;-0.698;2024-01-30T03:37:48;14.80;;;6.95;;
46717;SDS011;32448;44.960;-0.698;2024-01-30T03:40:15;10.48;;;6.50;;
46717;SDS011;32448;44.960;-0.698;2024-01-30T03:42:42;11.75;;;6.22;;
46717;SDS011;32448;44.960;-0.698;2024-01-30T03:45:09;13.40;;;6.60;;
46717;SDS011;32448;44.960;-0.698;2024-01-30T03:47:35;11.88;;;6.60;;
46717;SDS011;32448;44.960;-0.698;2024-01-30T03:50:02;14.48;;;6.45;;
46717;SDS011;32448;44.960;-0.698;2024-01-30T03:52:31;16.17;;;7.03;;
46717;SDS011;32448;44.960;-0.698;2024-01-30T03:54:58;8.77;;;6.35;;
46717;SDS011;32448;44.960;-0.698;2024-01-30T03:57:25;12.27;;;6.00;;
46717;SDS011;32448;44.960;-0.698;2024-01-30T03:59:51;10.40;;;6.00;;
46717;SDS011;32448;44.960;-0.698;2024-01-30T04:02:18;9.88;;;5.97;;
46717;SDS011;32448;44.960;-0.698;2024-01-30T04:04:45;9.07;;;6.00;;
46717;SDS011;32448;44.960;-0.698;2024-01-30T04:07:13;12.25;;;6.43;;
46717;SDS011;32448;44.960;-0.698;2024-01-30T04:09:39;11.82;;;6.57;;
46717;SDS011;32448;44.960;-0.698;2024-01-30T04:12:06;14.25;;;6.70;;
46717;SDS011;32448;44.960;-0.698;2024-01-30T04:14:33;12.82;;;6.90;;
46717;SDS011;32448;44.960;-0.698;2024-01-30T04:17:02;15.40;;;7.47;;
46717;SDS011;32448;44.960;-0.698;2024-01-30T04:19:28;13.95;;;7.35;;
46717;SDS011;32448;44.960;-0.698;2024-01-30T04:21:55;11.50;;;6.82;;
46717;SDS011;32448;44.960;-0.698;2024-01-30T04:24:22;11.60;;;6.90;;
46717;SDS011;32448;44.960;-0.698;2024-01-30T04:26:49;13.90;;;7.57;;
46717;SDS011;32448;44.960;-0.698;2024-01-30T04:29:15;12.93;;;7.05;;
46717;SDS011;32448;44.960;-0.698;2024-01-30T04:31:42;12.00;;;7.72;;
46717;SDS011;32448;44.960;-0.698;2024-01-30T04:34:09;11.75;;;7.15;;
46717;SDS011;32448;44.960;-0.698;2024-01-30T04:36:36;12.38;;;7.25;;
46717;SDS011;32448;44.960;-0.698;2024-01-30T04:39:03;13.07;;;8.15;;
46717;SDS011;32448;44.960;-0.698;2024-01-30T04:41:30;12.85;;;7.45;;
46717;SDS011;32448;44.960;-0.698;2024-01-30T04:43:58;11.77;;;7.18;;
46717;SDS011;32448;44.960;-0.698;2024-01-30T04:46:25;13.40;;;6.68;;
46717;SDS011;32448;44.960;-0.698;2024-01-30T04:48:52;12.95;;;6.93;;
46717;SDS011;32448;44.960;-0.698;2024-01-30T04:51:18;11.23;;;6.63;;
46717;SDS011;32448;44.960;-0.698;2024-01-30T04:53:46;13.45;;;6.65;;
46717;SDS011;32448;44.960;-0.698;2024-01-30T04:56:13;12.70;;;6.90;;
46717;SDS011;32448;44.960;-0.698;2024-01-30T04:58:40;10.07;;;6.88;;
46717;SDS011;32448;44.960;-0.698;2024-01-30T05:01:06;10.63;;;6.32;;
46717;SDS011;32448;44.960;-0.698;2024-01-30T05:03:33;9.52;;;6.40;;
46717;SDS011;32448;44.960;-0.698;2024-01-30T05:06:01;11.65;;;6.18;;
46717;SDS011;32448;44.960;-0.698;2024-01-30T05:08:28;11.27;;;6.57;;
46717;SDS011;32448;44.960;-0.698;2024-01-30T05:10:55;9.98;;;5.88;;
46717;SDS011;32448;44.960;-0.698;2024-01-30T05:13:22;11.52;;;6.43;;
46717;SDS011;32448;44.960;-0.698;2024-01-30T05:15:49;10.25;;;6.78;;
46717;SDS011;32448;44.960;-0.698;2024-01-30T05:18:16;12.48;;;6.78;;
46717;SDS011;32448;44.960;-0.698;2024-01-30T05:20:43;9.40;;;6.20;;
46717;SDS011;32448;44.960;-0.698;2024-01-30T05:23:09;9.35;;;6.20;;
46717;SDS011;32448;44.960;-0.698;2024-01-30T05:25:36;13.60;;;6.63;;
46717;SDS011;32448;44.960;-0.698;2024-01-30T05:28:03;13.40;;;7.60;;
46717;SDS011;32448;44.960;-0.698;2024-01-30T05:30:31;16.00;;;7.40;;
46717;SDS011;32448;44.960;-0.698;2024-01-30T05:32:58;11.90;;;7.32;;
46717;SDS011;32448;44.960;-0.698;2024-01-30T05:35:25;11.30;;;7.05;;
46717;SDS011;32448;44.960;-0.698;2024-01-30T05:37:52;13.48;;;7.50;;
46717;SDS011;32448;44.960;-0.698;2024-01-30T05:40:18;15.73;;;7.68;;
46717;SDS011;32448;44.960;-0.698;2024-01-30T05:42:45;12.07;;;7.40;;
46717;SDS011;32448;44.960;-0.698;2024-01-30T05:45:12;12.93;;;7.28;;
46717;SDS011;32448;44.960;-0.698;2024-01-30T05:47:41;14.80;;;8.35;;
46717;SDS011;32448;44.960;-0.698;2024-01-30T05:50:07;14.38;;;8.27;;
46717;SDS011;32448;44.960;-0.698;2024-01-30T05:52:34;13.40;;;8.63;;
46717;SDS011;32448;44.960;-0.698;2024-01-30T05:55:01;12.93;;;8.00;;
46717;SDS011;32448;44.960;-0.698;2024-01-30T05:57:29;19.65;;;9.63;;
46717;SDS011;32448;44.960;-0.698;2024-01-30T05:59:56;16.52;;;7.95;;
46717;SDS011;32448;44.960;-0.698;2024-01-30T06:02:23;13.10;;;8.43;;
46717;SDS011;32448;44.960;-0.698;2024-01-30T06:04:50;14.38;;;8.02;;
46717;SDS011;32448;44.960;-0.698;2024-01-30T06:07:17;14.38;;;8.15;;
46717;SDS011;32448;44.960;-0.698;2024-01-30T06:09:44;15.60;;;8.90;;
46717;SDS011;32448;44.960;-0.698;2024-01-30T06:12:13;11.95;;;8.32;;
46717;SDS011;32448;44.960;-0.698;2024-01-30T06:14:40;14.07;;;8.07;;
46717;SDS011;32448;44.960;-0.698;2024-01-30T06:17:12;9.40;;;5.60;;
46717;SDS011;32448;44.960;-0.698;2024-01-30T06:19:40;9.88;;;6.20;;
46717;SDS011;32448;44.960;-0.698;2024-01-30T06:22:08;11.65;;;6.30;;
46717;SDS011;32448;44.960;-0.698;2024-01-30T06:24:35;14.80;;;6.90;;
46717;SDS011;32448;44.960;-0.698;2024-01-30T06:27:02;10.20;;;6.43;;
46717;SDS011;32448;44.960;-0.698;2024-01-30T06:29:29;10.80;;;6.97;;
46717;SDS011;32448;44.960;-0.698;2024-01-30T06:31:56;9.98;;;6.22;;
46717;SDS011;32448;44.960;-0.698;2024-01-30T06:34:23;11.65;;;7.05;;
46717;SDS011;32448;44.960;-0.698;2024-01-30T06:36:52;10.00;;;6.35;;
46717;SDS011;32448;44.960;-0.698;2024-01-30T06:39:19;11.38;;;6.68;;
46717;SDS011;32448;44.960;-0.698;2024-01-30T06:41:47;12.23;;;7.35;;
46717;SDS011;32448;44.960;-0.698;2024-01-30T06:44:14;10.85;;;6.70;;
46717;SDS011;32448;44.960;-0.698;2024-01-30T06:46:41;9.00;;;6.15;;
46717;SDS011;32448;44.960;-0.698;2024-01-30T06:49:08;10.40;;;6.70;;
46717;SDS011;32448;44.960;-0.698;2024-01-30T06:51:34;13.35;;;7.47;;
46717;SDS011;32448;44.960;-0.698;2024-01-30T06:54:01;9.60;;;6.55;;
46717;SDS011;32448;44.960;-0.698;2024-01-30T06:56:28;10.40;;;7.07;;
46717;SDS011;32448;44.960;-0.698;2024-01-30T06:58:55;13.40;;;7.70;;
46717;SDS011;32448;44.960;-0.698;2024-01-30T07:01:27;11.32;;;7.10;;
46717;SDS011;32448;44.960;-0.698;2024-01-30T07:03:55;14.73;;;6.88;;
46717;SDS011;32448;44.960;-0.698;2024-01-30T07:06:22;14.73;;;7.50;;
46717;SDS011;32448;44.960;-0.698;2024-01-30T07:08:49;12.73;;;7.70;;
46717;SDS011;32448;44.960;-0.698;2024-01-30T07:11:19;12.65;;;7.32;;
46717;SDS011;32448;44.960;-0.698;2024-01-30T07:13:49;14.35;;;7.60;;
46717;SDS011;32448;44.960;-0.698;2024-01-30T07:16:17;13.10;;;7.95;;
46717;SDS011;32448;44.960;-0.698;2024-01-30T07:18:44;12.60;;;7.55;;
46717;SDS011;32448;44.960;-0.698;2024-01-30T07:21:11;12.05;;;6.72;;
46717;SDS011;32448;44.960;-0.698;2024-01-30T07:23:38;15.88;;;7.40;;
46717;SDS011;32448;44.960;-0.698;2024-01-30T07:26:05;12.63;;;7.25;;
46717;SDS011;32448;44.960;-0.698;2024-01-30T07:28:33;11.57;;;6.65;;
46717;SDS011;32448;44.960;-0.698;2024-01-30T07:31:01;9.68;;;6.82;;
46717;SDS011;32448;44.960;-0.698;2024-01-30T07:33:28;11.20;;;7.60;;
46717;SDS011;32448;44.960;-0.698;2024-01-30T07:35:55;12.10;;;7.80;;
46717;SDS011;32448;44.960;-0.698;2024-01-30T07:38:22;12.75;;;8.02;;
46717;SDS011;32448;44.960;-0.698;2024-01-30T07:40:49;17.70;;;9.00;;
46717;SDS011;32448;44.960;-0.698;2024-01-30T07:43:16;15.95;;;8.77;;
46717;SDS011;32448;44.960;-0.698;2024-01-30T07:45:43;16.52;;;8.68;;
46717;SDS011;32448;44.960;-0.698;2024-01-30T07:48:10;13.10;;;8.77;;
46717;SDS011;32448;44.960;-0.698;2024-01-30T07:50:36;16.30;;;9.23;;
46717;SDS011;32448;44.960;-0.698;2024-01-30T07:53:04;16.17;;;9.30;;
46717;SDS011;32448;44.960;-0.698;2024-01-30T07:55:30;12.77;;;8.48;;
46717;SDS011;32448;44.960;-0.698;2024-01-30T07:57:59;14.10;;;9.13;;
46717;SDS011;32448;44.960;-0.698;2024-01-30T08:00:26;14.73;;;8.90;;
46717;SDS011;32448;44.960;-0.698;2024-01-30T08:02:55;14.48;;;8.68;;
46717;SDS011;32448;44.960;-0.698;2024-01-30T08:05:23;13.73;;;7.82;;
46717;SDS011;32448;44.960;-0.698;2024-01-30T08:07:50;13.05;;;8.65;;
46717;SDS011;32448;44.960;-0.698;2024-01-30T08:10:18;15.55;;;8.25;;
46717;SDS011;32448;44.960;-0.698;2024-01-30T08:12:45;14.27;;;9.15;;
46717;SDS011;32448;44.960;-0.698;2024-01-30T08:15:12;13.82;;;8.05;;
46717;SDS011;32448;44.960;-0.698;2024-01-30T08:17:39;15.65;;;8.55;;
46717;SDS011;32448;44.960;-0.698;2024-01-30T08:20:06;14.88;;;8.35;;
46717;SDS011;32448;44.960;-0.698;2024-01-30T08:22:35;19.02;;;9.32;;
46717;SDS011;32448;44.960;-0.698;2024-01-30T08:25:02;13.82;;;9.45;;
46717;SDS011;32448;44.960;-0.698;2024-01-30T08:27:29;17.70;;;9.63;;
46717;SDS011;32448;44.960;-0.698;2024-01-30T08:29:56;17.25;;;9.57;;
46717;SDS011;32448;44.960;-0.698;2024-01-30T08:32:22;13.40;;;9.93;;
46717;SDS011;32448;44.960;-0.698;2024-01-30T08:34:50;16.48;;;9.63;;
46717;SDS011;32448;44.960;-0.698;2024-01-30T08:37:17;16.27;;;9.50;;
46717;SDS011;32448;44.960;-0.698;2024-01-30T08:39:44;15.07;;;8.75;;
46717;SDS011;32448;44.960;-0.698;2024-01-30T08:42:11;14.40;;;8.73;;
46717;SDS011;32448;44.960;-0.698;2024-01-30T08:44:38;15.88;;;9.02;;
46717;SDS011;32448;44.960;-0.698;2024-01-30T08:47:05;13.73;;;9.27;;
46717;SDS011;32448;44.960;-0.698;2024-01-30T08:49:32;16.33;;;10.63;;
46717;SDS011;32448;44.960;-0.698;2024-01-30T08:51:59;21.25;;;12.40;;
46717;SDS011;32448;44.960;-0.698;2024-01-30T08:54:26;21.08;;;12.75;;
46717;SDS011;32448;44.960;-0.698;2024-01-30T08:56:53;20.45;;;13.13;;
46717;SDS011;32448;44.960;-0.698;2024-01-30T08:59:21;27.73;;;14.85;;
46717;SDS011;32448;44.960;-0.698;2024-01-30T09:01:48;25.20;;;15.00;;
46717;SDS011;32448;44.960;-0.698;2024-01-30T09:04:29;31.95;;;16.15;;
46717;SDS011;32448;44.960;-0.698;2024-01-30T09:06:56;26.42;;;15.68;;
46717;SDS011;32448;44.960;-0.698;2024-01-30T09:09:23;27.85;;;15.32;;
46717;SDS011;32448;44.960;-0.698;2024-01-30T09:11:50;28.30;;;15.60;;
46717;SDS011;32448;44.960;-0.698;2024-01-30T09:14:17;21.60;;;14.55;;
46717;SDS011;32448;44.960;-0.698;2024-01-30T09:16:44;31.25;;;16.77;;
46717;SDS011;32448;44.960;-0.698;2024-01-30T09:19:10;33.00;;;17.60;;
46717;SDS011;32448;44.960;-0.698;2024-01-30T09:21:37;30.58;;;17.42;;
46717;SDS011;32448;44.960;-0.698;2024-01-30T09:24:05;29.95;;;16.60;;
46717;SDS011;32448;44.960;-0.698;2024-01-30T09:26:32;30.48;;;16.60;;
46717;SDS011;32448;44.960;-0.698;2024-01-30T09:28:59;30.40;;;15.95;;
46717;SDS011;32448;44.960;-0.698;2024-01-30T09:31:25;35.00;;;18.02;;
46717;SDS011;32448;44.960;-0.698;2024-01-30T09:33:52;37.20;;;17.60;;
46717;SDS011;32448;44.960;-0.698;2024-01-30T09:36:20;27.70;;;17.02;;
46717;SDS011;32448;44.960;-0.698;2024-01-30T09:38:48;31.67;;;17.77;;
46717;SDS011;32448;44.960;-0.698;2024-01-30T09:41:15;36.78;;;17.63;;
46717;SDS011;32448;44.960;-0.698;2024-01-30T09:43:42;34.83;;;18.60;;
46717;SDS011;32448;44.960;-0.698;2024-01-30T09:46:17;35.28;;;17.60;;
46717;SDS011;32448;44.960;-0.698;2024-01-30T09:48:47;30.20;;;17.25;;
46717;SDS011;32448;44.960;-0.698;2024-01-30T09:51:16;28.70;;;14.80;;
46717;SDS011;32448;44.960;-0.698;2024-01-30T09:53:44;24.55;;;15.15;;
46717;SDS011;32448;44.960;-0.698;2024-01-30T09:56:12;24.88;;;13.43;;
46717;SDS011;32448;44.960;-0.698;2024-01-30T09:58:39;27.27;;;13.43;;
46717;SDS011;32448;44.960;-0.698;2024-01-30T10:01:06;24.25;;;14.07;;
46717;SDS011;32448;44.960;-0.698;2024-01-30T10:03:33;22.80;;;12.27;;
46717;SDS011;32448;44.960;-0.698;2024-01-30T10:06:01;20.83;;;12.00;;
46717;SDS011;32448;44.960;-0.698;2024-01-30T10:08:28;29.45;;;11.82;;
46717;SDS011;32448;44.960;-0.698;2024-01-30T10:10:56;26.77;;;11.57;;
46717;SDS011;32448;44.960;-0.698;2024-01-30T10:13:25;23.55;;;11.40;;
46717;SDS011;32448;44.960;-0.698;2024-01-30T10:15:52;17.52;;;9.82;;
46717;SDS011;32448;44.960;-0.698;2024-01-30T10:18:19;29.10;;;11.48;;
46717;SDS011;32448;44.960;-0.698;2024-01-30T10:20:46;26.30;;;12.13;;
46717;SDS011;32448;44.960;-0.698;2024-01-30T10:23:13;21.30;;;10.30;;
46717;SDS011;32448;44.960;-0.698;2024-01-30T10:25:40;20.00;;;11.32;;
46717;SDS011;32448;44.960;-0.698;2024-01-30T10:28:07;19.10;;;9.75;;
46717;SDS011;32448;44.960;-0.698;2024-01-30T10:30:34;20.60;;;11.00;;
46717;SDS011;32448;44.960;-0.698;2024-01-30T10:33:01;20.83;;;9.65;;
46717;SDS011;32448;44.960;-0.698;2024-01-30T10:35:28;16.75;;;9.70;;
46717;SDS011;32448;44.960;-0.698;2024-01-30T10:37:56;22.42;;;9.73;;
46717;SDS011;32448;44.960;-0.698;2024-01-30T10:40:27;14.80;;;9.10;;
46717;SDS011;32448;44.960;-0.698;2024-01-30T10:42:55;17.95;;;8.88;;
46717;SDS011;32448;44.960;-0.698;2024-01-30T10:45:23;18.92;;;9.02;;
46717;SDS011;32448;44.960;-0.698;2024-01-30T10:47:54;20.90;;;8.57;;
46717;SDS011;32448;44.960;-0.698;2024-01-30T10:50:25;15.68;;;7.97;;
46717;SDS011;32448;44.960;-0.698;2024-01-30T10:52:54;16.25;;;8.35;;
46717;SDS011;32448;44.960;-0.698;2024-01-30T10:55:21;16.60;;;7.63;;
46717;SDS011;32448;44.960;-0.698;2024-01-30T10:57:49;19.00;;;9.23;;
46717;SDS011;32448;44.960;-0.698;2024-01-30T11:00:17;18.67;;;8.43;;
46717;SDS011;32448;44.960;-0.698;2024-01-30T11:02:48;20.17;;;7.70;;
46717;SDS011;32448;44.960;-0.698;2024-01-30T11:05:23;13.18;;;7.70;;
46717;SDS011;32448;44.960;-0.698;2024-01-30T11:07:58;15.77;;;7.80;;
46717;SDS011;32448;44.960;-0.698;2024-01-30T11:10:25;15.60;;;7.97;;
46717;SDS011;32448;44.960;-0.698;2024-01-30T11:12:52;12.50;;;7.35;;
46717;SDS011;32448;44.960;-0.698;2024-01-30T11:15:18;13.90;;;6.90;;
46717;SDS011;32448;44.960;-0.698;2024-01-30T11:20:16;17.63;;;6.97;;
46717;SDS011;32448;44.960;-0.698;2024-01-30T11:22:47;14.85;;;6.55;;
46717;SDS011;32448;44.960;-0.698;2024-01-30T11:25:16;11.20;;;6.28;;
46717;SDS011;32448;44.960;-0.698;2024-01-30T11:27:47;17.40;;;7.32;;
46717;SDS011;32448;44.960;-0.698;2024-01-30T11:35:42;10.75;;;6.28;;
46717;SDS011;32448;44.960;-0.698;2024-01-30T11:38:13;11.57;;;6.88;;
46717;SDS011;32448;44.960;-0.698;2024-01-30T11:40:41;16.48;;;6.10;;
46717;SDS011;32448;44.960;-0.698;2024-01-30T11:43:08;17.90;;;6.80;;
46717;SDS011;32448;44.960;-0.698;2024-01-30T11:45:38;9.38;;;6.35;;
46717;SDS011;32448;44.960;-0.698;2024-01-30T11:48:06;16.38;;;6.68;;
46717;SDS011;32448;44.960;-0.698;2024-01-30T11:50:34;14.95;;;6.97;;
46717;SDS011;32448;44.960;-0.698;2024-01-30T11:53:01;11.32;;;6.20;;
46717;SDS011;32448;44.960;-0.698;2024-01-30T11:55:29;16.17;;;7.03;;
46717;SDS011;32448;44.960;-0.698;2024-01-30T11:58:01;15.30;;;6.28;;
46717;SDS011;32448;44.960;-0.698;2024-01-30T12:00:29;15.77;;;6.25;;
46717;SDS011;32448;44.960;-0.698;2024-01-30T12:02:57;13.57;;;6.45;;
46717;SDS011;32448;44.960;-0.698;2024-01-30T12:05:27;13.30;;;6.65;;
46717;SDS011;32448;44.960;-0.698;2024-01-30T12:07:55;17.38;;;6.30;;
46717;SDS011;32448;44.960;-0.698;2024-01-30T12:10:26;18.63;;;6.90;;
46717;SDS011;32448;44.960;-0.698;2024-01-30T12:12:54;14.25;;;6.45;;
46717;SDS011;32448;44.960;-0.698;2024-01-30T12:15:21;14.30;;;6.38;;
46717;SDS011;32448;44.960;-0.698;2024-01-30T12:17:48;16.35;;;6.00;;
46717;SDS011;32448;44.960;-0.698;2024-01-30T12:20:19;13.00;;;5.88;;
46717;SDS011;32448;44.960;-0.698;2024-01-30T12:22:48;17.95;;;6.43;;
46717;SDS011;32448;44.960;-0.698;2024-01-30T12:25:17;15.00;;;6.00;;
46717;SDS011;32448;44.960;-0.698;2024-01-30T12:27:49;13.73;;;5.93;;
46717;SDS011;32448;44.960;-0.698;2024-01-30T12:30:18;15.20;;;6.40;;
46717;SDS011;32448;44.960;-0.698;2024-01-30T12:32:49;13.93;;;5.75;;
46717;SDS011;32448;44.960;-0.698;2024-01-30T12:35:19;12.35;;;5.80;;
46717;SDS011;32448;44.960;-0.698;2024-01-30T12:37:48;12.93;;;6.40;;
46717;SDS011;32448;44.960;-0.698;2024-01-30T12:40:15;15.55;;;6.22;;
46717;SDS011;32448;44.960;-0.698;2024-01-30T12:42:45;12.27;;;6.50;;
46717;SDS011;32448;44.960;-0.698;2024-01-30T12:45:15;18.92;;;6.70;;
46717;SDS011;32448;44.960;-0.698;2024-01-30T12:47:47;17.67;;;6.43;;
46717;SDS011;32448;44.960;-0.698;2024-01-30T12:50:14;14.05;;;6.93;;
46717;SDS011;32448;44.960;-0.698;2024-01-30T12:52:42;13.48;;;6.03;;
46717;SDS011;32448;44.960;-0.698;2024-01-30T12:55:11;10.00;;;6.13;;
46717;SDS011;32448;44.960;-0.698;2024-01-30T12:57:39;16.15;;;6.57;;
46717;SDS011;32448;44.960;-0.698;2024-01-30T13:00:06;15.25;;;5.93;;
46717;SDS011;32448;44.960;-0.698;2024-01-30T13:02:35;11.85;;;5.85;;
46717;SDS011;32448;44.960;-0.698;2024-01-30T13:05:03;14.50;;;6.05;;
46717;SDS011;32448;44.960;-0.698;2024-01-30T13:07:31;12.77;;;6.57;;
46717;SDS011;32448;44.960;-0.698;2024-01-30T13:09:58;10.57;;;6.20;;
46717;SDS011;32448;44.960;-0.698;2024-01-30T13:12:30;19.08;;;7.10;;
46717;SDS011;32448;44.960;-0.698;2024-01-30T13:14:59;13.88;;;6.88;;
46717;SDS011;32448;44.960;-0.698;2024-01-30T13:17:31;16.20;;;6.53;;
46717;SDS011;32448;44.960;-0.698;2024-01-30T13:19:59;11.02;;;6.18;;
46717;SDS011;32448;44.960;-0.698;2024-01-30T13:22:36;16.70;;;6.70;;
46717;SDS011;32448;44.960;-0.698;2024-01-30T13:25:05;12.07;;;5.90;;
46717;SDS011;32448;44.960;-0.698;2024-01-30T13:27:33;16.85;;;6.80;;
46717;SDS011;32448;44.960;-0.698;2024-01-30T13:30:00;13.27;;;6.40;;
46717;SDS011;32448;44.960;-0.698;2024-01-30T13:32:28;11.25;;;5.90;;
46717;SDS011;32448;44.960;-0.698;2024-01-30T13:34:55;11.07;;;5.65;;
46717;SDS011;32448;44.960;-0.698;2024-01-30T13:37:22;15.00;;;6.20;;
46717;SDS011;32448;44.960;-0.698;2024-01-30T13:39:49;12.80;;;5.93;;
46717;SDS011;32448;44.960;-0.698;2024-01-30T13:42:16;11.88;;;5.78;;
46717;SDS011;32448;44.960;-0.698;2024-01-30T13:44:43;10.90;;;5.40;;
46717;SDS011;32448;44.960;-0.698;2024-01-30T13:47:11;11.77;;;6.10;;
46717;SDS011;32448;44.960;-0.698;2024-01-30T13:49:38;12.50;;;5.40;;
46717;SDS011;32448;44.960;-0.698;2024-01-30T13:52:07;11.52;;;5.72;;
46717;SDS011;32448;44.960;-0.698;2024-01-30T13:54:35;12.70;;;6.10;;
46717;SDS011;32448;44.960;-0.698;2024-01-30T13:57:01;9.75;;;5.85;;
46717;SDS011;32448;44.960;-0.698;2024-01-30T13:59:28;14.02;;;5.60;;
46717;SDS011;32448;44.960;-0.698;2024-01-30T14:01:55;10.07;;;5.20;;
46717;SDS011;32448;44.960;-0.698;2024-01-30T14:04:22;11.50;;;5.70;;
46717;SDS011;32448;44.960;-0.698;2024-01-30T14:06:49;13.07;;;6.22;;
46717;SDS011;32448;44.960;-0.698;2024-01-30T14:09:29;13.05;;;5.50;;
46717;SDS011;32448;44.960;-0.698;2024-01-30T14:11:56;13.98;;;6.20;;
46717;SDS011;32448;44.960;-0.698;2024-01-30T14:14:23;12.75;;;5.72;;
46717;SDS011;32448;44.960;-0.698;2024-01-30T14:16:50;11.98;;;5.93;;
46717;SDS011;32448;44.960;-0.698;2024-01-30T14:19:17;8.35;;;4.72;;
46717;SDS011;32448;44.960;-0.698;2024-01-30T14:21:44;11.23;;;5.20;;
46717;SDS011;32448;44.960;-0.698;2024-01-30T14:24:11;13.40;;;5.20;;
46717;SDS011;32448;44.960;-0.698;2024-01-30T14:26:38;11.32;;;5.38;;
46717;SDS011;32448;44.960;-0.698;2024-01-30T14:29:05;9.20;;;4.72;;
46717;SDS011;32448;44.960;-0.698;2024-01-30T14:31:32;10.50;;;5.25;;